createdAt,value
2024-05-09T00:00:39.127Z,99.90
2024-05-09T00:03:10.062Z,99.90
2024-05-09T00:05:40.723Z,99.90
2024-05-09T00:08:10.287Z,99.90
2024-05-09T00:10:39.627Z,99.90
2024-05-09T00:13:08.718Z,99.90
2024-05-09T00:15:37.236Z,99.90
2024-05-09T00:18:07.285Z,99.90
2024-05-09T00:20:39.825Z,99.90
2024-05-09T00:23:12.162Z,99.90
2024-05-09T00:25:42.665Z,99.90
2024-05-09T00:28:11.662Z,99.90
2024-05-09T00:30:39.177Z,99.90
2024-05-09T00:33:08.159Z,99.90
2024-05-09T00:35:37.219Z,99.90
2024-05-09T00:38:05.106Z,99.90
2024-05-09T00:40:39.872Z,99.90
2024-05-09T00:43:11.729Z,99.90
2024-05-09T00:45:39.982Z,99.90
2024-05-09T00:48:09.508Z,99.90
2024-05-09T00:50:41.011Z,99.90
2024-05-09T00:53:11.831Z,99.90
2024-05-09T00:55:40.187Z,99.90
2024-05-09T00:58:10.848Z,99.90
2024-05-09T01:00:40.560Z,99.90
2024-05-09T01:03:11.714Z,99.90
2024-05-09T01:05:42.160Z,99.90
2024-05-09T01:08:10.828Z,99.90
2024-05-09T01:10:39.537Z,99.90
2024-05-09T01:13:08.098Z,99.90
2024-05-09T01:15:36.139Z,99.90
2024-05-09T01:18:10.404Z,99.90
2024-05-09T01:20:42.423Z,99.90
2024-05-09T01:23:14.555Z,99.90
2024-05-09T01:25:45.019Z,99.90
2024-05-09T01:28:12.738Z,99.90
2024-05-09T01:30:40.225Z,99.90
2024-05-09T01:33:09.864Z,99.90
2024-05-09T01:35:42.064Z,99.90
2024-05-09T01:38:13.756Z,99.90
2024-05-09T01:40:41.625Z,99.90
2024-05-09T01:43:10.976Z,99.90
2024-05-09T01:45:41.174Z,99.90
2024-05-09T01:48:10.862Z,99.90
2024-05-09T01:50:41.839Z,99.90
2024-05-09T01:53:13.867Z,99.90
2024-05-09T01:55:42.154Z,99.90
2024-05-09T01:58:10.040Z,99.90
2024-05-09T02:00:41.357Z,99.90
2024-05-09T02:03:14.447Z,99.90
2024-05-09T02:05:47.049Z,99.90
2024-05-09T02:08:17.207Z,99.90
2024-05-09T02:10:45.431Z,99.90
2024-05-09T02:13:14.004Z,99.90
2024-05-09T02:15:41.459Z,99.90
2024-05-09T02:18:10.370Z,99.90
2024-05-09T02:20:41.182Z,99.90
2024-05-09T02:23:09.780Z,99.90
2024-05-09T02:25:37.164Z,99.90
2024-05-09T02:28:04.861Z,99.90
2024-05-09T02:30:39.974Z,99.90
2024-05-09T02:33:11.674Z,99.90
2024-05-09T02:35:44.386Z,99.90
2024-05-09T02:38:12.615Z,99.90
2024-05-09T02:40:40.819Z,99.90
2024-05-09T02:43:10.637Z,99.90
2024-05-09T02:45:39.959Z,99.90
2024-05-09T02:48:11.410Z,99.90
2024-05-09T02:50:41.160Z,99.90
2024-05-09T02:53:09.822Z,99.90
2024-05-09T02:55:38.858Z,99.90
2024-05-09T02:58:08.322Z,99.90
2024-05-09T03:00:39.765Z,99.90
2024-05-09T03:03:12.891Z,99.90
2024-05-09T03:05:43.710Z,99.90
2024-05-09T03:08:11.502Z,99.90
2024-05-09T03:10:39.630Z,99.90
2024-05-09T03:13:08.687Z,99.90
2024-05-09T03:15:36.410Z,99.90
2024-05-09T03:18:05.935Z,99.90
2024-05-09T03:20:35.829Z,99.90
2024-05-09T03:23:05.848Z,99.90
2024-05-09T03:25:34.342Z,99.90
2024-05-09T03:28:01.963Z,99.90
2024-05-09T03:30:36.772Z,99.90
2024-05-09T03:33:12.225Z,99.90
2024-05-09T03:35:41.045Z,99.90
2024-05-09T03:38:08.891Z,99.90
2024-05-09T03:40:36.587Z,99.90
2024-05-09T03:43:04.055Z,99.90
2024-05-09T03:45:31.459Z,99.90
2024-05-09T03:47:59.245Z,99.90
2024-05-09T03:50:33.658Z,99.90
2024-05-09T03:53:03.323Z,99.90
2024-05-09T03:55:31.336Z,99.90
2024-05-09T03:57:59.063Z,99.90
2024-05-09T04:00:35.005Z,99.90
2024-05-09T04:03:09.713Z,99.90
2024-05-09T04:05:40.864Z,99.90
2024-05-09T04:08:10.255Z,99.90
2024-05-09T04:10:38.126Z,99.90
2024-05-09T04:13:05.699Z,99.90
2024-05-09T04:15:33.559Z,99.90
2024-05-09T04:18:01.985Z,99.90
2024-05-09T04:20:37.628Z,99.90
2024-05-09T04:23:11.335Z,99.90
2024-05-09T04:25:43.289Z,99.90
2024-05-09T04:28:10.867Z,99.90
2024-05-09T04:30:40.908Z,99.90
2024-05-09T04:33:12.302Z,99.90
2024-05-09T04:35:42.968Z,99.90
2024-05-09T04:38:11.330Z,99.90
2024-05-09T04:40:38.860Z,99.90
2024-05-09T04:43:07.518Z,99.90
2024-05-09T04:45:35.782Z,99.90
2024-05-09T04:48:03.909Z,99.90
2024-05-09T04:50:36.980Z,99.90
2024-05-09T04:53:09.269Z,99.90
2024-05-09T04:55:38.467Z,99.90
2024-05-09T04:58:09.044Z,99.90
2024-05-09T05:00:38.960Z,99.90
2024-05-09T05:03:13.714Z,99.90
2024-05-09T05:05:44.966Z,99.90
2024-05-09T05:08:15.040Z,99.90
2024-05-09T05:10:43.950Z,99.90
2024-05-09T05:13:13.896Z,99.90
2024-05-09T05:15:41.946Z,99.90
2024-05-09T05:18:09.531Z,99.90
2024-05-09T05:20:37.043Z,99.90
2024-05-09T05:23:07.233Z,99.90
2024-05-09T05:25:34.728Z,99.90
2024-05-09T05:28:02.094Z,99.90
2024-05-09T05:30:34.471Z,99.90
2024-05-09T05:33:02.830Z,99.90
2024-05-09T05:35:30.634Z,99.90
2024-05-09T05:37:58.311Z,99.90
2024-05-09T05:40:33.238Z,99.90
2024-05-09T05:43:06.276Z,99.90
2024-05-09T05:45:33.670Z,99.90
2024-05-09T05:48:04.226Z,99.90
2024-05-09T05:50:36.143Z,99.90
2024-05-09T05:53:08.099Z,99.90
2024-05-09T05:55:37.384Z,99.90
2024-05-09T05:58:05.400Z,99.90
2024-05-09T06:00:38.898Z,99.90
2024-05-09T06:03:09.716Z,99.90
2024-05-09T06:05:40.525Z,99.90
2024-05-09T06:08:09.081Z,99.90
2024-05-09T06:10:39.782Z,99.90
2024-05-09T06:13:11.559Z,99.90
2024-05-09T06:15:41.019Z,99.90
2024-05-09T06:18:10.765Z,99.90
2024-05-09T06:20:43.249Z,99.90
2024-05-09T06:23:12.396Z,99.90
2024-05-09T06:25:40.494Z,99.90
2024-05-09T06:28:08.064Z,99.90
2024-05-09T06:30:40.610Z,99.90
2024-05-09T06:33:12.670Z,99.90
2024-05-09T06:35:42.569Z,99.90
2024-05-09T06:38:10.286Z,99.90
2024-05-09T06:40:41.743Z,99.90
2024-05-09T06:43:12.649Z,99.90
2024-05-09T06:45:40.327Z,99.90
2024-05-09T06:48:10.137Z,99.90
2024-05-09T06:50:39.514Z,99.90
2024-05-09T06:53:08.558Z,99.90
2024-05-09T06:55:37.471Z,99.90
2024-05-09T06:58:07.150Z,99.90
2024-05-09T07:00:39.274Z,99.90
2024-05-09T07:03:12.453Z,99.90
2024-05-09T07:05:41.801Z,99.90
2024-05-09T07:08:09.597Z,99.90
2024-05-09T07:10:37.464Z,99.90
2024-05-09T07:13:08.109Z,99.90
2024-05-09T07:15:35.938Z,99.90
2024-05-09T07:18:08.101Z,99.90
2024-05-09T07:20:35.848Z,99.90
2024-05-09T07:23:03.594Z,99.90
2024-05-09T07:25:31.175Z,99.90
2024-05-09T07:27:58.617Z,99.90
2024-05-09T07:30:33.041Z,99.90
2024-05-09T07:33:03.123Z,99.90
2024-05-09T07:35:31.523Z,99.90
2024-05-09T07:37:59.859Z,99.90
2024-05-09T07:40:35.111Z,99.90
2024-05-09T07:43:05.642Z,99.90
2024-05-09T07:52:23.992Z,99.90
2024-05-09T07:53:39.525Z,99.90
2024-05-09T07:56:11.989Z,99.90
2024-05-09T07:58:40.162Z,99.90
2024-05-09T08:01:07.722Z,99.90
2024-05-09T08:03:35.813Z,99.90
2024-05-09T08:06:03.566Z,99.90
2024-05-09T08:08:31.063Z,99.90
2024-05-09T08:10:58.626Z,99.90
2024-05-09T08:13:26.088Z,99.90
2024-05-09T08:15:53.506Z,99.90
2024-05-09T08:18:21.256Z,99.90
2024-05-09T08:20:50.047Z,99.90
2024-05-09T08:23:18.203Z,99.90
2024-05-09T08:25:45.679Z,99.90
2024-05-09T08:28:13.313Z,99.90
2024-05-09T08:30:41.378Z,99.90
2024-05-09T08:33:09.227Z,99.90
2024-05-09T08:35:37.969Z,99.90
2024-05-09T08:38:07.345Z,99.90
2024-05-09T08:40:37.550Z,99.90
2024-05-09T08:43:09.232Z,99.90
2024-05-09T08:45:39.179Z,99.90
2024-05-09T08:48:09.055Z,99.90
2024-05-09T08:50:41.146Z,99.90
2024-05-09T08:53:09.483Z,99.90
2024-05-09T08:55:41.573Z,99.90
2024-05-09T08:58:16.528Z,99.90
2024-05-09T09:00:46.389Z,99.90
2024-05-09T09:03:17.577Z,99.90
2024-05-09T09:05:55.111Z,99.90
2024-05-09T09:08:23.344Z,99.90
2024-05-09T09:10:53.772Z,99.90
2024-05-09T09:13:21.500Z,99.90
2024-05-09T09:15:50.355Z,99.90
2024-05-09T09:18:19.283Z,99.90
2024-05-09T09:20:47.470Z,99.90
2024-05-09T09:23:15.165Z,99.90
2024-05-09T09:25:43.171Z,99.90
2024-05-09T09:28:10.771Z,99.90
2024-05-09T09:30:40.579Z,99.90
2024-05-09T09:33:10.172Z,99.90
2024-05-09T09:35:40.730Z,99.90
2024-05-09T09:38:10.845Z,99.90
2024-05-09T09:40:46.778Z,99.90
2024-05-09T09:43:21.438Z,99.90
2024-05-09T09:45:52.827Z,99.90
2024-05-09T09:48:23.252Z,99.90
2024-05-09T09:50:52.633Z,98.60
2024-05-09T09:53:20.371Z,99.30
2024-05-09T09:55:49.540Z,99.00
2024-05-09T09:58:18.258Z,99.40
2024-05-09T10:00:46.249Z,98.80
2024-05-09T10:03:14.171Z,99.10
2024-05-09T10:05:45.358Z,99.40
2024-05-09T10:08:15.406Z,98.50
2024-05-09T10:10:47.720Z,98.10
2024-05-09T10:13:16.377Z,98.60
2024-05-09T10:15:46.854Z,98.70
2024-05-09T10:18:15.450Z,97.80
2024-05-09T10:20:45.206Z,97.20
2024-05-09T10:23:16.261Z,97.30
2024-05-09T10:25:54.550Z,96.60
2024-05-09T10:28:27.439Z,96.50
2024-05-09T10:31:10.670Z,95.10
2024-05-09T10:33:39.356Z,95.50
2024-05-09T10:36:10.277Z,95.50
2024-05-09T10:38:38.392Z,93.80
2024-05-09T10:41:06.614Z,94.40
2024-05-09T10:43:35.960Z,94.00
2024-05-09T10:46:04.841Z,94.20
2024-05-09T10:48:32.627Z,92.60
2024-05-09T10:51:00.949Z,92.70
2024-05-09T10:53:28.500Z,92.70
2024-05-09T10:55:57.850Z,92.00
2024-05-09T10:58:26.573Z,90.60
2024-05-09T11:00:55.950Z,90.10
2024-05-09T11:03:25.074Z,91.70
2024-05-09T11:05:53.413Z,91.20
2024-05-09T11:08:22.548Z,89.80
2024-05-09T11:10:52.627Z,89.40
2024-05-09T11:13:23.208Z,90.60
2024-05-09T11:15:50.638Z,86.50
2024-05-09T11:18:24.990Z,84.80
2024-05-09T11:20:54.519Z,85.20
2024-05-09T11:23:26.263Z,83.20
2024-05-09T11:25:56.293Z,80.80
2024-05-09T11:28:24.330Z,81.10
2024-05-09T11:30:52.029Z,82.30
2024-05-09T11:33:20.001Z,79.60
2024-05-09T11:35:48.110Z,80.20
2024-05-09T11:38:15.743Z,78.00
2024-05-09T11:40:43.353Z,76.00
2024-05-09T11:43:11.148Z,78.70
2024-05-09T11:45:38.830Z,78.10
2024-05-09T11:48:06.711Z,79.00
2024-05-09T11:50:35.987Z,79.30
2024-05-09T11:53:04.047Z,82.10
2024-05-09T11:55:36.201Z,81.60
2024-05-09T11:58:04.748Z,81.90
2024-05-09T12:00:36.822Z,81.80
2024-05-09T12:03:06.403Z,81.00
2024-05-09T12:05:34.562Z,79.40
2024-05-09T12:08:02.666Z,76.50
2024-05-09T12:10:34.307Z,76.20
2024-05-09T12:13:06.027Z,76.50
2024-05-09T12:15:38.132Z,78.80
2024-05-09T12:18:08.084Z,75.20
2024-05-09T12:20:39.005Z,78.80
2024-05-09T12:23:10.185Z,78.30
2024-05-09T12:25:39.823Z,77.00
2024-05-09T12:28:08.888Z,76.10
2024-05-09T12:30:40.318Z,74.80
2024-05-09T12:33:11.330Z,76.80
2024-05-09T12:35:43.463Z,77.80
2024-05-09T12:38:13.938Z,79.00
2024-05-09T12:40:42.349Z,80.00
2024-05-09T12:43:11.083Z,81.00
2024-05-09T12:45:39.932Z,80.00
2024-05-09T12:48:12.459Z,78.30
2024-05-09T12:50:41.649Z,78.10
2024-05-09T12:53:09.604Z,79.20
2024-05-09T12:55:45.103Z,79.10
2024-05-09T12:58:22.773Z,77.70
2024-05-09T13:00:52.839Z,79.50
2024-05-09T13:03:21.212Z,80.40
2024-05-09T13:05:50.538Z,82.20
2024-05-09T13:08:19.082Z,81.50
2024-05-09T13:10:46.901Z,78.00
2024-05-09T13:13:14.732Z,79.00
2024-05-09T13:15:42.423Z,79.40
2024-05-09T13:18:10.087Z,78.80
2024-05-09T13:20:37.739Z,80.00
2024-05-09T13:23:07.954Z,78.50
2024-05-09T13:25:37.887Z,80.10
2024-05-09T13:28:07.163Z,80.20
2024-05-09T13:30:40.466Z,83.60
2024-05-09T13:33:12.296Z,80.80
2024-05-09T13:35:47.026Z,82.20
2024-05-09T13:38:20.340Z,79.60
2024-05-09T13:40:49.253Z,78.80
2024-05-09T13:43:18.172Z,81.10
2024-05-09T13:45:46.414Z,81.00
2024-05-09T13:48:14.284Z,79.40
2024-05-09T13:50:41.908Z,81.20
2024-05-09T13:53:09.525Z,81.50
2024-05-09T13:55:38.907Z,80.40
2024-05-09T13:58:07.548Z,79.30
2024-05-09T14:00:44.936Z,80.50
2024-05-09T14:03:18.727Z,78.40
2024-05-09T14:06:13.013Z,81.20
2024-05-09T14:08:40.817Z,82.30
2024-05-09T14:11:08.271Z,83.90
2024-05-09T14:13:35.843Z,82.30
2024-05-09T14:16:03.826Z,81.50
2024-05-09T14:18:31.502Z,82.50
2024-05-09T14:20:59.123Z,80.90
2024-05-09T14:23:26.547Z,81.10
2024-05-09T14:25:54.293Z,81.90
2024-05-09T14:28:23.287Z,83.20
2024-05-09T14:30:51.439Z,82.80
2024-05-09T14:33:25.565Z,82.60
2024-05-09T14:35:53.768Z,84.40
2024-05-09T14:38:21.147Z,84.40
2024-05-09T14:40:48.823Z,82.50
2024-05-09T14:43:18.079Z,85.60
2024-05-09T14:45:46.084Z,84.40
2024-05-09T14:48:15.436Z,83.20
2024-05-09T14:50:43.568Z,85.20
2024-05-09T14:53:12.925Z,84.00
2024-05-09T14:55:42.850Z,85.50
2024-05-09T14:58:12.832Z,85.40
2024-05-09T15:00:46.745Z,87.50
2024-05-09T15:03:19.237Z,89.00
2024-05-09T15:05:48.423Z,89.10
2024-05-09T15:08:18.369Z,88.20
2024-05-09T15:10:46.747Z,87.70
2024-05-09T15:13:16.633Z,88.10
2024-05-09T15:15:45.068Z,88.70
2024-05-09T15:18:13.747Z,87.80
2024-05-09T15:20:41.815Z,89.00
2024-05-09T15:23:09.567Z,87.20
2024-05-09T15:25:37.272Z,88.40
2024-05-09T15:28:08.307Z,87.20
2024-05-09T15:30:36.705Z,88.80
2024-05-09T15:33:05.505Z,90.00
2024-05-09T15:35:34.420Z,87.90
2024-05-09T15:38:03.678Z,87.70
2024-05-09T15:40:38.577Z,89.60
2024-05-09T15:43:10.634Z,89.70
2024-05-09T15:45:40.435Z,90.00
2024-05-09T15:48:09.991Z,88.60
2024-05-09T15:50:41.026Z,88.80
2024-05-09T15:53:12.336Z,90.10
2024-05-09T15:55:41.920Z,90.20
2024-05-09T15:58:09.986Z,91.10
2024-05-09T16:00:41.516Z,91.40
2024-05-09T16:03:12.035Z,91.80
2024-05-09T16:05:41.577Z,91.80
2024-05-09T16:08:10.162Z,91.40
2024-05-09T16:10:43.498Z,92.40
2024-05-09T16:13:12.643Z,92.30
2024-05-09T16:15:40.426Z,91.00
2024-05-09T16:18:08.237Z,91.10
2024-05-09T16:20:40.201Z,90.90
2024-05-09T16:23:10.475Z,90.80
2024-05-09T16:25:39.840Z,90.60
2024-05-09T16:28:10.314Z,90.60
2024-05-09T16:30:40.250Z,91.40
2024-05-09T16:33:08.912Z,91.20
2024-05-09T16:35:37.852Z,91.00
2024-05-09T16:38:06.294Z,91.30
2024-05-09T16:40:38.759Z,91.10
2024-05-09T16:43:10.092Z,91.20
2024-05-09T16:45:39.678Z,90.80
2024-05-09T16:48:08.265Z,91.30
2024-05-09T16:50:36.804Z,91.40
2024-05-09T16:53:06.078Z,90.90
2024-05-09T16:55:34.764Z,92.10
2024-05-09T16:58:03.868Z,91.70
2024-05-09T17:00:39.905Z,92.80
2024-05-09T17:03:13.463Z,92.80
2024-05-09T17:05:43.070Z,92.30
2024-05-09T17:08:10.753Z,92.40
2024-05-09T17:10:38.506Z,91.90
2024-05-09T17:13:07.628Z,92.30
2024-05-09T17:15:37.503Z,92.80
2024-05-09T17:18:07.727Z,92.80
2024-05-09T17:20:37.648Z,92.90
2024-05-09T17:23:13.690Z,92.20
2024-05-09T17:25:42.693Z,91.80
2024-05-09T17:28:11.213Z,92.30
2024-05-09T17:30:41.016Z,92.10
2024-05-09T17:33:11.082Z,92.60
2024-05-09T17:35:39.972Z,92.70
2024-05-09T17:38:07.812Z,92.40
2024-05-09T17:40:37.399Z,93.30
2024-05-09T17:43:09.626Z,93.90
2024-05-09T17:45:40.561Z,93.80
2024-05-09T17:48:10.787Z,93.90
2024-05-09T17:50:39.423Z,94.00
2024-05-09T17:53:08.359Z,93.60
2024-05-09T17:55:36.771Z,93.80
2024-05-09T17:58:05.708Z,93.60
2024-05-09T18:00:39.284Z,93.90
2024-05-09T18:03:12.450Z,94.30
2024-05-09T18:05:41.741Z,94.70
2024-05-09T18:08:09.875Z,94.80
2024-05-09T18:10:39.782Z,95.00
2024-05-09T18:13:09.106Z,94.60
2024-05-09T18:15:37.751Z,94.60
2024-05-09T18:18:07.204Z,95.20
2024-05-09T18:20:42.272Z,94.80
2024-05-09T18:23:15.709Z,94.70
2024-05-09T18:25:44.659Z,94.50
2024-05-09T18:28:12.148Z,95.10
2024-05-09T18:30:41.238Z,95.20
2024-05-09T18:33:11.175Z,95.20
2024-05-09T18:35:41.702Z,95.30
2024-05-09T18:38:10.180Z,95.30
2024-05-09T18:40:39.452Z,95.50
2024-05-09T18:43:09.187Z,95.70
2024-05-09T18:45:38.634Z,95.70
2024-05-09T18:48:08.367Z,95.80
2024-05-09T18:50:39.936Z,96.00
2024-05-09T18:53:11.069Z,96.10
2024-05-09T18:55:39.736Z,96.20
2024-05-09T18:58:07.487Z,96.40
2024-05-09T19:00:38.476Z,96.60
2024-05-09T19:03:11.069Z,96.60
2024-05-09T19:05:41.660Z,96.90
2024-05-09T19:08:10.131Z,97.20
2024-05-09T19:10:39.978Z,97.50
2024-05-09T19:13:12.033Z,97.80
2024-05-09T19:15:42.681Z,98.10
2024-05-09T19:18:12.868Z,98.20
2024-05-09T19:20:41.011Z,98.50
2024-05-09T19:23:08.616Z,98.90
2024-05-09T19:25:36.543Z,99.20
2024-05-09T19:28:05.472Z,99.60
2024-05-09T19:30:39.333Z,99.90
2024-05-09T19:33:12.846Z,99.90
2024-05-09T19:35:42.070Z,99.90
2024-05-09T19:38:09.691Z,99.90
2024-05-09T19:40:37.360Z,99.90
2024-05-09T19:43:06.310Z,99.90
2024-05-09T19:45:35.666Z,99.90
2024-05-09T19:48:05.653Z,99.90
2024-05-09T19:50:41.417Z,99.90
2024-05-09T19:53:12.860Z,99.90
2024-05-09T19:55:41.585Z,99.90
2024-05-09T19:58:10.465Z,99.90
2024-05-09T20:00:41.497Z,99.90
2024-05-09T20:03:12.883Z,99.90
2024-05-09T20:05:42.640Z,99.90
2024-05-09T20:08:10.532Z,99.90
2024-05-09T20:10:39.241Z,99.90
2024-05-09T20:13:08.348Z,99.90
2024-05-09T20:15:38.075Z,99.90
2024-05-09T20:18:07.378Z,99.90
2024-05-09T20:20:40.103Z,99.90
2024-05-09T20:23:12.042Z,99.90
2024-05-09T20:25:40.468Z,99.90
2024-05-09T20:28:08.208Z,99.90
2024-05-09T20:30:36.700Z,99.90
2024-05-09T20:33:08.031Z,99.90
2024-05-09T20:35:36.778Z,99.90
2024-05-09T20:38:04.878Z,99.90
2024-05-09T20:40:36.481Z,99.90
2024-05-09T20:43:08.550Z,99.90
2024-05-09T20:45:36.631Z,99.90
2024-05-09T20:48:04.873Z,99.90
2024-05-09T20:50:38.978Z,99.90
2024-05-09T20:53:12.491Z,99.90
2024-05-09T20:55:41.436Z,99.90
2024-05-09T20:58:09.919Z,99.90
2024-05-09T21:00:41.395Z,99.90
2024-05-09T21:03:14.163Z,99.90
2024-05-09T21:05:43.030Z,99.90
2024-05-09T21:08:10.674Z,99.90
2024-05-09T21:10:38.494Z,99.90
2024-05-09T21:13:07.136Z,99.90
2024-05-09T21:15:35.901Z,99.90
2024-05-09T21:18:04.955Z,99.90
2024-05-09T21:20:34.919Z,99.90
2024-05-09T21:23:03.531Z,99.90
2024-05-09T21:25:31.916Z,99.90
2024-05-09T21:28:00.234Z,99.90
2024-05-09T21:30:37.777Z,99.90
2024-05-09T21:33:11.646Z,99.90
2024-05-09T21:35:42.312Z,99.90
2024-05-09T21:38:10.469Z,99.90
2024-05-09T21:40:38.676Z,99.90
2024-05-09T21:43:07.996Z,99.90
2024-05-09T21:45:37.092Z,99.90
2024-05-09T21:48:06.018Z,99.90
2024-05-09T21:50:39.930Z,99.90
2024-05-09T21:53:11.154Z,99.90
2024-05-09T21:55:38.726Z,99.90
2024-05-09T21:58:06.281Z,99.90
2024-05-09T22:00:38.320Z,99.90
2024-05-09T22:03:08.797Z,99.90
2024-05-09T22:05:37.909Z,99.90
2024-05-09T22:08:06.002Z,99.90
2024-05-09T22:10:35.712Z,99.90
2024-05-09T22:13:06.134Z,99.90
2024-05-09T22:15:37.198Z,99.90
2024-05-09T22:18:06.608Z,99.90
2024-05-09T22:20:38.229Z,99.90
2024-05-09T22:23:08.405Z,99.90
2024-05-09T22:25:37.299Z,99.90
2024-05-09T22:28:05.558Z,99.90
2024-05-09T22:30:37.307Z,99.90
2024-05-09T22:33:09.768Z,99.90
2024-05-09T22:35:38.754Z,99.90
2024-05-09T22:38:06.444Z,99.90
2024-05-09T22:40:44.862Z,99.90
2024-05-09T22:43:19.372Z,99.90
2024-05-09T22:45:47.865Z,99.90
2024-05-09T22:48:15.571Z,99.90
2024-05-09T22:50:43.179Z,99.90
2024-05-09T22:53:10.649Z,99.90
2024-05-09T22:55:38.146Z,99.90
2024-05-09T22:58:05.685Z,99.90
2024-05-09T23:00:33.996Z,99.90
2024-05-09T23:03:02.217Z,99.90
2024-05-09T23:05:30.612Z,99.90
2024-05-09T23:07:58.456Z,99.90
2024-05-09T23:10:32.432Z,99.90
2024-05-09T23:13:04.540Z,99.90
2024-05-09T23:15:31.944Z,99.90
2024-05-09T23:17:59.587Z,99.90
2024-05-09T23:20:36.067Z,99.90
2024-05-09T23:23:07.972Z,99.90
2024-05-09T23:25:36.986Z,99.90
2024-05-09T23:28:05.097Z,99.90
2024-05-09T23:30:37.745Z,99.90
2024-05-09T23:33:09.851Z,99.90
2024-05-09T23:35:37.586Z,99.90
2024-05-09T23:38:05.330Z,99.90
2024-05-09T23:43:03.821Z,99.90
2024-05-09T23:45:31.256Z,99.90
2024-05-09T23:47:58.961Z,99.90
2024-05-09T23:50:33.535Z,99.90
2024-05-09T23:53:04.800Z,99.90
2024-05-09T23:55:32.802Z,99.90
2024-05-09T23:58:00.895Z,99.90
